Time;durP1;ratioP1;P1;durP2;ratioP2;P2;SDS_P1;SDS_P2;PMS_P1;PMS_P2;Temp;Humidity;BMP_temperature;BMP_pressure;BME280_temperature;BME280_humidity;BME280_pressure;Samples;Min_cycle;Max_cycle;Signal;HPM_P1;HPM_P2
2021/03/06 00:01:56;;;;;;;5.53;3.50;;;0.80;99.90;;;;;;5093556;28;20216;-58
2021/03/06 00:04:23;;;;;;;3.93;3.17;;;0.80;99.90;;;;;;5093555;28;20208;-58
2021/03/06 00:06:49;;;;;;;4.50;3.20;;;0.80;99.90;;;;;;5093483;28;20577;-58
2021/03/06 00:09:15;;;;;;;4.73;2.97;;;0.80;99.90;;;;;;5093550;28;20215;-58
2021/03/06 00:11:41;;;;;;;4.97;3.37;;;0.80;99.90;;;;;;5093335;28;20235;-58
2021/03/06 00:14:07;;;;;;;5.37;3.50;;;0.80;99.90;;;;;;5093544;28;20204;-58
2021/03/06 00:16:33;;;;;;;4.53;3.40;;;0.60;99.90;;;;;;5093201;28;20232;-58
2021/03/06 00:19:00;;;;;;;6.50;3.83;;;0.70;99.90;;;;;;5093199;28;20220;-58
2021/03/06 00:21:27;;;;;;;4.03;3.30;;;0.70;99.90;;;;;;5093212;28;20201;-58
2021/03/06 00:23:53;;;;;;;8.13;4.10;;;0.70;99.90;;;;;;5093382;28;20230;-58
2021/03/06 00:26:19;;;;;;;5.23;3.83;;;0.70;99.90;;;;;;5093029;28;20228;-58
2021/03/06 00:28:45;;;;;;;7.27;5.87;;;0.80;99.90;;;;;;5092989;28;20204;-58
2021/03/06 00:31:11;;;;;;;7.90;5.97;;;0.80;99.90;;;;;;5093171;28;20212;-58
2021/03/06 00:33:37;;;;;;;8.73;6.00;;;0.90;99.90;;;;;;5092894;28;20204;-58
2021/03/06 00:36:04;;;;;;;8.07;5.40;;;0.90;99.90;;;;;;5092846;28;20224;-58
2021/03/06 00:38:31;;;;;;;6.90;5.43;;;0.90;99.90;;;;;;5093273;28;20208;-58
2021/03/06 00:40:57;;;;;;;6.40;4.70;;;0.90;99.90;;;;;;5093220;28;20208;-58
2021/03/06 00:43:24;;;;;;;7.60;5.43;;;0.90;99.90;;;;;;5092847;28;20204;-58
2021/03/06 00:45:50;;;;;;;4.80;3.20;;;0.90;99.90;;;;;;5092767;28;20251;-58
2021/03/06 00:48:16;;;;;;;6.30;3.60;;;0.80;99.90;;;;;;5092592;28;20231;-58
2021/03/06 00:50:42;;;;;;;6.17;3.57;;;0.80;99.90;;;;;;5092562;28;20264;-58
2021/03/06 00:53:08;;;;;;;6.90;3.73;;;0.80;99.90;;;;;;5092797;28;20200;-58
2021/03/06 00:55:35;;;;;;;4.77;3.97;;;0.80;99.90;;;;;;5092312;28;20236;-58
2021/03/06 00:58:01;;;;;;;4.10;3.60;;;0.80;99.90;;;;;;5092424;28;20204;-58
2021/03/06 01:00:28;;;;;;;4.10;3.43;;;0.80;99.90;;;;;;5092392;28;20215;-58
2021/03/06 01:02:54;;;;;;;4.33;3.27;;;0.70;99.90;;;;;;5091498;28;20200;-58
2021/03/06 01:05:21;;;;;;;5.90;3.43;;;0.60;99.90;;;;;;5092337;28;20231;-58
2021/03/06 01:07:47;;;;;;;5.87;3.47;;;0.70;99.90;;;;;;5092206;28;20231;-58
2021/03/06 01:10:16;;;;;;;5.17;3.70;;;0.70;99.90;;;;;;5092328;28;20204;-58
2021/03/06 01:12:43;;;;;;;4.00;3.47;;;0.70;99.90;;;;;;5092455;28;20265;-58
2021/03/06 01:15:10;;;;;;;3.60;3.30;;;0.60;99.90;;;;;;5092045;28;20285;-58
2021/03/06 01:17:37;;;;;;;5.60;3.80;;;0.60;99.90;;;;;;5091890;28;20207;-58
2021/03/06 01:20:04;;;;;;;5.67;4.60;;;0.60;99.90;;;;;;5092099;28;20227;-58
2021/03/06 01:22:30;;;;;;;5.23;4.13;;;0.60;99.90;;;;;;5092126;28;20262;-58
2021/03/06 01:24:57;;;;;;;5.23;4.20;;;0.60;99.90;;;;;;5091820;28;20597;-58
2021/03/06 01:27:23;;;;;;;5.67;4.33;;;0.50;99.90;;;;;;5091830;28;20216;-58
2021/03/06 01:29:50;;;;;;;4.60;3.97;;;0.50;99.90;;;;;;5091735;28;20462;-58
2021/03/06 01:32:16;;;;;;;4.97;3.70;;;0.50;99.90;;;;;;5091716;28;20578;-58
2021/03/06 01:34:42;;;;;;;6.17;4.97;;;0.50;99.90;;;;;;5091840;28;20212;-58
2021/03/06 01:37:08;;;;;;;7.67;5.20;;;0.50;99.90;;;;;;5092203;28;20200;-58
2021/03/06 01:39:34;;;;;;;4.97;4.13;;;0.50;99.90;;;;;;5091818;28;20201;-58
2021/03/06 01:42:01;;;;;;;6.93;4.50;;;0.50;99.90;;;;;;5091976;28;20204;-58
2021/03/06 01:44:27;;;;;;;5.87;4.63;;;0.50;99.90;;;;;;5091534;28;20203;-58
2021/03/06 01:46:54;;;;;;;5.57;4.10;;;0.50;99.90;;;;;;5091583;28;20243;-58
2021/03/06 01:49:20;;;;;;;4.63;3.63;;;0.40;99.90;;;;;;5091754;28;20204;-58
2021/03/06 01:51:46;;;;;;;5.20;3.67;;;0.50;99.90;;;;;;5092033;28;20211;-58
2021/03/06 01:54:14;;;;;;;6.57;3.63;;;0.40;99.90;;;;;;5091896;28;20672;-58
2021/03/06 01:56:41;;;;;;;5.40;3.40;;;0.40;99.90;;;;;;5091515;28;20349;-58
2021/03/06 01:59:07;;;;;;;4.20;3.60;;;0.40;99.90;;;;;;5091407;28;20200;-58
2021/03/06 02:01:33;;;;;;;5.50;3.53;;;0.40;99.90;;;;;;5091234;28;20204;-58
2021/03/06 02:04:00;;;;;;;5.63;3.97;;;0.40;99.90;;;;;;5091507;28;20207;-58
2021/03/06 02:06:27;;;;;;;5.03;3.73;;;0.30;99.90;;;;;;5091206;28;20228;-58
2021/03/06 02:08:54;;;;;;;5.17;3.17;;;0.30;99.90;;;;;;5091499;28;20209;-58
2021/03/06 02:11:37;;;;;;;5.00;4.10;;;0.30;99.90;;;;;;5091275;28;20279;-58
2021/03/06 02:14:18;;;;;;;5.53;3.80;;;0.20;99.90;;;;;;5091073;28;20212;-58
2021/03/06 02:16:49;;;;;;;4.43;3.60;;;0.20;99.90;;;;;;5091319;28;20224;-58
2021/03/06 02:19:45;;;;;;;5.13;3.80;;;0.20;99.90;;;;;;5091381;28;20204;-58
2021/03/06 02:22:24;;;;;;;3.93;3.50;;;0.20;99.90;;;;;;5091016;28;20205;-58
2021/03/06 02:25:05;;;;;;;4.47;3.47;;;0.10;99.90;;;;;;5091123;28;20224;-58
2021/03/06 02:27:36;;;;;;;3.80;3.40;;;0.10;99.90;;;;;;5091234;28;20230;-58
2021/03/06 02:30:05;;;;;;;5.00;3.30;;;0.10;99.90;;;;;;5091228;28;20208;-58
2021/03/06 02:32:36;;;;;;;5.27;3.77;;;0.10;99.90;;;;;;5090890;28;20210;-58
2021/03/06 02:35:09;;;;;;;5.93;3.97;;;0.00;99.90;;;;;;5091247;28;20225;-58
2021/03/06 02:37:38;;;;;;;5.73;3.80;;;0.00;99.90;;;;;;5091644;28;20196;-58
2021/03/06 02:40:08;;;;;;;6.00;4.00;;;0.00;99.90;;;;;;5091439;28;20200;-59
2021/03/06 02:42:36;;;;;;;7.00;3.77;;;0.00;99.90;;;;;;5090749;28;20715;-58
2021/03/06 02:45:07;;;;;;;6.03;4.17;;;-0.10;99.90;;;;;;5090608;28;20315;-58
2021/03/06 02:47:33;;;;;;;6.87;3.70;;;-0.10;99.90;;;;;;5091219;28;20231;-58
2021/03/06 02:50:01;;;;;;;4.73;3.60;;;-0.10;99.90;;;;;;5090758;28;20200;-58
2021/03/06 02:52:27;;;;;;;6.47;4.40;;;-0.10;99.90;;;;;;5090909;28;20212;-58
2021/03/06 02:54:54;;;;;;;5.70;4.17;;;-0.20;99.90;;;;;;5114661;22;20296;-64
2021/03/06 02:57:36;;;;;;;5.50;4.20;;;-0.30;99.90;;;;;;5071168;28;20311;-63
2021/03/06 03:00:18;;;;;;;6.60;4.13;;;-0.30;99.90;;;;;;5071818;28;20220;-63
2021/03/06 03:02:53;;;;;;;4.53;3.50;;;-0.30;99.90;;;;;;5072052;28;20201;-63
2021/03/06 03:05:28;;;;;;;4.63;3.67;;;-0.30;99.90;;;;;;5071580;28;20220;-63
2021/03/06 03:08:01;;;;;;;4.00;3.27;;;-0.30;99.90;;;;;;5070756;28;20216;-62
2021/03/06 03:10:31;;;;;;;5.50;4.03;;;-0.30;99.90;;;;;;5070930;28;20205;-63
2021/03/06 03:13:08;;;;;;;6.33;3.90;;;-0.40;99.90;;;;;;5070871;28;20263;-63
2021/03/06 03:15:40;;;;;;;4.60;4.03;;;-0.40;99.90;;;;;;5071528;28;20306;-63
2021/03/06 03:18:08;;;;;;;5.07;3.80;;;-0.40;99.90;;;;;;5071227;28;20291;-63
2021/03/06 03:20:38;;;;;;;5.87;4.30;;;-0.40;99.90;;;;;;5071341;28;20587;-62
2021/03/06 03:23:09;;;;;;;5.97;4.23;;;-0.50;99.90;;;;;;5071921;28;20261;-62
2021/03/06 03:25:38;;;;;;;5.03;4.17;;;-0.50;99.90;;;;;;5073318;28;20229;-63
2021/03/06 03:28:05;;;;;;;5.87;4.23;;;-0.50;99.90;;;;;;5074736;28;20221;-63
2021/03/06 03:30:33;;;;;;;6.07;4.07;;;-0.60;99.90;;;;;;5074646;28;20209;-63
2021/03/06 03:33:02;;;;;;;5.93;4.77;;;-0.60;99.90;;;;;;5074414;28;20238;-62
2021/03/06 03:35:29;;;;;;;5.03;4.00;;;-0.60;99.90;;;;;;5074274;28;20231;-63
2021/03/06 03:37:56;;;;;;;5.97;4.20;;;-0.60;99.90;;;;;;5074059;28;20730;-62
2021/03/06 03:40:23;;;;;;;6.80;4.53;;;-0.70;99.90;;;;;;5074524;28;20208;-62
2021/03/06 03:42:50;;;;;;;8.73;6.50;;;-0.70;99.90;;;;;;5074126;28;20213;-63
2021/03/06 03:45:19;;;;;;;11.83;7.20;;;-0.70;99.90;;;;;;5074301;28;20225;-63
2021/03/06 03:47:46;;;;;;;8.80;7.00;;;-0.70;99.90;;;;;;5075408;28;20251;-62
2021/03/06 03:50:16;;;;;;;10.73;7.50;;;-0.70;99.90;;;;;;5075998;28;20227;-63
2021/03/06 03:52:47;;;;;;;9.60;6.70;;;-0.70;99.90;;;;;;5075022;28;20205;-63
2021/03/06 03:55:15;;;;;;;8.60;6.10;;;-0.80;99.90;;;;;;5074197;28;20240;-62
2021/03/06 03:57:44;;;;;;;6.60;5.23;;;-0.80;99.90;;;;;;5074061;28;20211;-62
2021/03/06 04:00:13;;;;;;;6.73;4.20;;;-0.80;99.90;;;;;;5074117;28;20220;-63
2021/03/06 04:02:39;;;;;;;5.53;4.10;;;-0.90;99.90;;;;;;5074691;28;20213;-62
2021/03/06 04:05:07;;;;;;;5.50;3.90;;;-0.90;99.90;;;;;;5074358;28;20211;-62
2021/03/06 04:07:42;;;;;;;6.87;4.40;;;-0.90;99.90;;;;;;5074349;28;20251;-64
2021/03/06 04:10:10;;;;;;;6.37;4.00;;;-1.00;99.90;;;;;;5074346;28;20204;-63
2021/03/06 04:12:36;;;;;;;6.67;4.30;;;-1.00;99.90;;;;;;5073998;28;20213;-64
2021/03/06 04:15:04;;;;;;;6.57;3.93;;;-1.00;99.90;;;;;;5074061;28;20209;-63
2021/03/06 04:17:30;;;;;;;5.53;4.03;;;-1.00;99.90;;;;;;5073471;28;20205;-62
2021/03/06 04:19:56;;;;;;;5.60;4.10;;;-1.00;99.90;;;;;;5073117;28;20201;-63
2021/03/06 04:22:22;;;;;;;5.47;4.43;;;-1.10;99.90;;;;;;5073196;28;20209;-63
2021/03/06 04:24:50;;;;;;;5.73;4.43;;;-1.10;99.90;;;;;;5073588;28;20208;-63
2021/03/06 04:27:16;;;;;;;7.17;4.27;;;-1.10;99.90;;;;;;5072986;28;20228;-63
2021/03/06 04:29:43;;;;;;;4.50;4.00;;;-1.10;99.90;;;;;;5073106;28;20643;-63
2021/03/06 04:32:09;;;;;;;6.33;4.10;;;-1.10;99.90;;;;;;5073449;28;20205;-63
2021/03/06 04:34:35;;;;;;;5.47;3.97;;;-1.10;99.90;;;;;;5072951;28;20212;-62
2021/03/06 04:37:01;;;;;;;7.83;4.47;;;-1.10;99.90;;;;;;5071951;28;20274;-62
2021/03/06 04:39:27;;;;;;;6.13;4.43;;;-1.10;99.90;;;;;;5073125;28;20220;-63
2021/03/06 04:41:54;;;;;;;5.53;4.10;;;-1.10;99.90;;;;;;5072992;28;20213;-63
2021/03/06 04:44:21;;;;;;;5.40;3.80;;;-1.20;99.90;;;;;;5072954;28;20266;-64
2021/03/06 04:46:47;;;;;;;5.93;4.47;;;-1.20;99.90;;;;;;5072849;28;20228;-62
2021/03/06 04:49:13;;;;;;;5.07;4.00;;;-1.20;99.90;;;;;;5073097;28;20590;-63
2021/03/06 04:51:40;;;;;;;20.17;10.57;;;-1.30;99.90;;;;;;5073034;28;20209;-64
2021/03/06 04:54:07;;;;;;;9.80;6.23;;;-1.30;99.90;;;;;;5072947;28;20209;-63
2021/03/06 04:56:33;;;;;;;8.90;5.33;;;-1.20;99.90;;;;;;5072743;28;20236;-63
2021/03/06 04:59:00;;;;;;;18.43;10.30;;;-1.30;99.90;;;;;;5072611;28;20205;-63
2021/03/06 05:01:26;;;;;;;15.97;10.70;;;-1.30;99.90;;;;;;5072531;28;20607;-64
2021/03/06 05:03:52;;;;;;;17.70;10.63;;;-1.30;99.90;;;;;;5072274;28;20208;-64
2021/03/06 05:06:19;;;;;;;13.13;8.40;;;-1.30;99.90;;;;;;5072045;28;20225;-63
2021/03/06 05:08:45;;;;;;;16.03;9.90;;;-1.40;99.90;;;;;;5072207;28;20664;-64
2021/03/06 05:11:11;;;;;;;9.37;6.83;;;-1.40;99.90;;;;;;5072283;28;20208;-63
2021/03/06 05:13:38;;;;;;;9.17;6.20;;;-1.40;99.90;;;;;;5072242;28;20220;-63
2021/03/06 05:16:06;;;;;;;8.47;5.27;;;-1.40;99.90;;;;;;5072478;28;20228;-64
2021/03/06 05:18:32;;;;;;;24.57;12.33;;;-1.40;99.90;;;;;;5072181;28;20208;-63
2021/03/06 05:20:59;;;;;;;23.27;14.83;;;-1.40;99.90;;;;;;5072380;28;20591;-64
2021/03/06 05:23:26;;;;;;;34.10;18.70;;;-1.40;99.90;;;;;;5071953;28;20205;-64
2021/03/06 05:25:52;;;;;;;9.97;7.07;;;-1.50;99.90;;;;;;5072580;28;20232;-63
2021/03/06 05:28:19;;;;;;;8.70;6.13;;;-1.50;99.90;;;;;;5071907;28;20224;-63
2021/03/06 05:30:45;;;;;;;8.37;5.80;;;-1.50;99.90;;;;;;5072245;28;20205;-63
2021/03/06 05:33:13;;;;;;;6.43;5.20;;;-1.50;99.90;;;;;;5072030;28;20555;-62
2021/03/06 05:35:40;;;;;;;5.83;4.60;;;-1.50;99.90;;;;;;5072118;28;20240;-63
2021/03/06 05:38:06;;;;;;;9.50;5.50;;;-1.50;99.90;;;;;;5071590;28;20570;-63
2021/03/06 05:40:38;;;;;;;12.03;8.23;;;-1.60;99.90;;;;;;5071968;28;20536;-64
2021/03/06 05:43:05;;;;;;;10.27;6.13;;;-1.60;99.90;;;;;;5071841;28;20209;-63
2021/03/06 05:45:32;;;;;;;6.03;4.73;;;-1.60;99.90;;;;;;5071398;28;20743;-63
2021/03/06 05:47:58;;;;;;;6.63;5.27;;;-1.60;99.90;;;;;;5071117;28;20274;-64
2021/03/06 05:50:26;;;;;;;5.10;4.40;;;-1.60;99.90;;;;;;5071823;28;20201;-63
2021/03/06 05:52:52;;;;;;;8.23;5.53;;;-1.60;99.90;;;;;;5071377;28;20228;-63
2021/03/06 05:55:20;;;;;;;14.50;8.37;;;-1.60;99.90;;;;;;5071759;28;20237;-64
2021/03/06 05:57:48;;;;;;;22.07;11.63;;;-1.60;99.90;;;;;;5071875;28;20205;-63
2021/03/06 06:00:15;;;;;;;9.33;5.77;;;-1.50;99.90;;;;;;5071890;28;20566;-63
2021/03/06 06:02:42;;;;;;;21.87;11.37;;;-1.50;99.90;;;;;;5071452;28;20590;-63
2021/03/06 06:05:09;;;;;;;7.90;5.80;;;-1.50;99.90;;;;;;5071078;28;20648;-63
2021/03/06 06:07:37;;;;;;;11.23;6.63;;;-1.50;99.90;;;;;;5071475;28;20225;-63
2021/03/06 06:10:05;;;;;;;8.03;5.30;;;-1.50;99.90;;;;;;5071412;28;20215;-63
2021/03/06 06:12:31;;;;;;;10.73;5.40;;;-1.50;99.90;;;;;;5071227;28;20215;-63
2021/03/06 06:14:58;;;;;;;6.07;4.37;;;-1.40;99.90;;;;;;5071466;28;20209;-63
2021/03/06 06:17:24;;;;;;;13.17;7.43;;;-1.30;99.90;;;;;;5071022;28;20205;-63
2021/03/06 06:19:51;;;;;;;10.30;5.07;;;-1.30;99.90;;;;;;5070947;28;20236;-63
2021/03/06 06:22:18;;;;;;;6.67;4.50;;;-1.30;99.90;;;;;;5071083;28;20386;-63
2021/03/06 06:24:46;;;;;;;12.03;6.20;;;-1.20;99.90;;;;;;5070952;28;20239;-63
2021/03/06 06:27:20;;;;;;;19.77;10.20;;;-1.10;99.90;;;;;;5070859;28;20534;-63
2021/03/06 06:29:47;;;;;;;12.53;5.73;;;-1.10;99.90;;;;;;5071283;28;20237;-63
2021/03/06 06:32:14;;;;;;;10.83;6.93;;;-1.00;99.90;;;;;;5070899;28;20219;-63
2021/03/06 06:34:42;;;;;;;9.17;4.73;;;-0.90;99.90;;;;;;5071074;28;20363;-63
2021/03/06 06:37:10;;;;;;;9.80;5.00;;;-0.90;99.90;;;;;;5070858;28;20228;-63
2021/03/06 06:39:36;;;;;;;7.60;4.77;;;-0.80;99.90;;;;;;5071026;28;20209;-63
2021/03/06 06:42:03;;;;;;;7.87;5.90;;;-0.80;99.90;;;;;;5070921;28;20231;-62
2021/03/06 06:44:31;;;;;;;8.60;4.13;;;-0.60;99.90;;;;;;5070997;28;20220;-64
2021/03/06 06:46:58;;;;;;;14.70;7.27;;;-0.50;99.90;;;;;;5071004;28;20228;-63
2021/03/06 06:49:26;;;;;;;19.77;10.70;;;0.10;99.90;;;;;;5070757;28;20205;-64
2021/03/06 06:52:00;;;;;;;7.33;4.57;;;1.20;99.90;;;;;;5071001;28;20254;-64
2021/03/06 06:54:28;;;;;;;5.93;3.93;;;2.80;99.90;;;;;;5070918;28;20603;-64
2021/03/06 06:57:11;;;;;;;6.13;4.30;;;4.40;97.70;;;;;;5071189;28;20240;-64
2021/03/06 06:59:39;;;;;;;9.07;5.17;;;6.00;94.60;;;;;;5071925;28;20204;-64
2021/03/06 07:02:09;;;;;;;6.27;4.50;;;7.30;91.50;;;;;;5075153;28;20204;-64
2021/03/06 07:04:46;;;;;;;8.80;3.97;;;8.40;88.00;;;;;;5075393;28;20208;-64
2021/03/06 07:07:14;;;;;;;5.77;3.63;;;9.50;84.10;;;;;;5074737;28;20278;-64
2021/03/06 07:09:57;;;;;;;10.03;6.50;;;10.40;77.70;;;;;;5074955;28;20212;-64
2021/03/06 07:12:25;;;;;;;12.43;8.97;;;11.20;68.80;;;;;;5075221;28;20211;-64
2021/03/06 07:14:52;;;;;;;7.40;5.43;;;11.90;65.60;;;;;;5075186;28;20220;-64
2021/03/06 07:17:18;;;;;;;3.87;3.23;;;12.20;61.50;;;;;;5075078;28;20212;-65
2021/03/06 07:19:45;;;;;;;3.60;2.50;;;12.60;58.30;;;;;;5074749;28;20216;-65
2021/03/06 07:22:12;;;;;;;3.07;2.70;;;12.80;56.80;;;;;;5074719;28;20680;-65
2021/03/06 07:24:39;;;;;;;4.23;2.60;;;13.00;55.00;;;;;;5074511;28;20205;-66
2021/03/06 07:27:06;;;;;;;5.50;2.50;;;13.10;54.60;;;;;;5074783;28;20270;-66
2021/03/06 07:29:33;;;;;;;5.47;2.80;;;13.10;53.10;;;;;;5074496;28;20213;-64
2021/03/06 07:32:01;;;;;;;3.63;2.93;;;12.60;53.00;;;;;;5074394;28;20209;-64
2021/03/06 07:34:29;;;;;;;3.07;2.63;;;12.20;53.70;;;;;;5074535;28;20216;-64
2021/03/06 07:36:59;;;;;;;4.57;3.13;;;11.80;53.90;;;;;;5075214;28;20224;-62
2021/03/06 07:39:29;;;;;;;3.73;3.00;;;11.70;55.20;;;;;;5074338;28;20213;-62
2021/03/06 07:42:01;;;;;;;4.00;3.33;;;11.60;55.30;;;;;;5074409;28;20201;-61
2021/03/06 07:44:30;;;;;;;4.07;2.97;;;11.70;53.80;;;;;;5074013;28;20673;-62
2021/03/06 07:46:59;;;;;;;4.63;2.70;;;11.40;55.00;;;;;;5073764;28;20231;-60
2021/03/06 07:49:32;;;;;;;5.67;3.40;;;10.50;55.00;;;;;;5073552;28;20205;-60
2021/03/06 07:52:01;;;;;;;5.17;3.20;;;9.50;57.80;;;;;;5073732;28;20688;-61
2021/03/06 07:54:27;;;;;;;4.10;3.23;;;8.40;59.90;;;;;;5073564;28;20674;-59
2021/03/06 07:56:54;;;;;;;4.77;2.90;;;7.30;63.80;;;;;;5073507;28;20233;-60
2021/03/06 07:59:48;;;;;;;4.37;2.97;;;6.50;67.00;;;;;;5073407;28;20281;-59
2021/03/06 08:02:33;;;;;;;5.17;3.20;;;5.70;67.90;;;;;;5073884;28;20262;-57
2021/03/06 08:04:59;;;;;;;3.90;3.00;;;5.00;70.30;;;;;;5073282;28;20212;-60
2021/03/06 08:07:45;;;;;;;4.10;3.10;;;4.30;72.80;;;;;;5073394;28;20693;-62
2021/03/06 08:10:12;;;;;;;5.10;3.00;;;3.80;75.30;;;;;;5073315;28;20668;-61
2021/03/06 08:12:40;;;;;;;5.27;3.43;;;3.50;77.50;;;;;;5073785;28;20213;-60
2021/03/06 08:15:30;;;;;;;3.60;2.80;;;3.20;79.30;;;;;;5073524;28;20237;-61
2021/03/06 08:17:58;;;;;;;7.23;3.83;;;3.00;80.20;;;;;;5073677;28;20624;-61
2021/03/06 08:20:28;;;;;;;3.43;3.00;;;2.90;82.10;;;;;;5073201;28;20200;-61
2021/03/06 08:23:20;;;;;;;3.97;3.40;;;2.90;82.70;;;;;;5073477;28;20232;-61
2021/03/06 08:25:48;;;;;;;4.60;3.00;;;2.90;84.10;;;;;;5073322;28;20731;-61
2021/03/06 08:28:25;;;;;;;3.67;3.30;;;2.90;84.00;;;;;;5073070;28;20701;-61
2021/03/06 08:30:51;;;;;;;4.23;3.30;;;3.00;83.70;;;;;;5073104;28;20208;-60
2021/03/06 08:33:18;;;;;;;4.17;3.47;;;3.00;83.70;;;;;;5073029;28;20212;-60
2021/03/06 08:35:44;;;;;;;4.67;3.43;;;3.00;84.90;;;;;;5073005;28;20249;-60
2021/03/06 08:38:28;;;;;;;4.57;3.00;;;3.10;84.60;;;;;;5072872;28;20208;-61
2021/03/06 08:40:55;;;;;;;3.37;3.00;;;3.20;85.00;;;;;;5072810;28;20209;-60
2021/03/06 08:43:21;;;;;;;3.93;3.13;;;3.30;84.80;;;;;;5072791;28;20212;-61
2021/03/06 08:45:47;;;;;;;5.47;3.10;;;3.40;84.70;;;;;;5072580;28;20711;-59
2021/03/06 08:48:14;;;;;;;3.83;3.20;;;3.50;85.50;;;;;;5072622;28;20282;-59
2021/03/06 08:50:44;;;;;;;4.27;3.20;;;3.60;84.00;;;;;;5072855;28;20205;-59
2021/03/06 08:53:13;;;;;;;6.17;3.27;;;3.70;83.10;;;;;;5072620;28;20205;-59
2021/03/06 08:55:42;;;;;;;4.33;3.10;;;3.80;83.00;;;;;;5072693;28;20236;-61
2021/03/06 08:58:10;;;;;;;3.57;3.07;;;3.90;82.50;;;;;;5073453;28;20197;-61
2021/03/06 09:00:40;;;;;;;4.43;3.10;;;3.90;82.10;;;;;;5073097;28;20212;-62
2021/03/06 09:03:14;;;;;;;4.37;3.17;;;4.00;80.90;;;;;;5072779;28;20611;-61
2021/03/06 09:05:42;;;;;;;4.20;2.80;;;4.00;81.00;;;;;;5072812;28;20220;-61
2021/03/06 09:08:08;;;;;;;5.07;3.33;;;4.00;79.90;;;;;;5072466;28;20227;-62
2021/03/06 09:10:40;;;;;;;4.57;3.40;;;3.90;80.60;;;;;;5073192;28;20217;-65
2021/03/06 09:13:11;;;;;;;4.17;2.90;;;3.90;81.60;;;;;;5072653;28;20209;-60
2021/03/06 09:15:49;;;;;;;4.03;3.27;;;4.00;80.40;;;;;;5072321;28;20697;-60
2021/03/06 09:18:18;;;;;;;4.40;2.97;;;3.90;79.40;;;;;;5072071;28;20664;-61
2021/03/06 09:20:54;;;;;;;3.87;3.20;;;3.90;80.80;;;;;;5071984;28;20205;-61
2021/03/06 09:23:25;;;;;;;4.90;2.90;;;3.90;79.90;;;;;;5071696;28;20209;-61
2021/03/06 09:25:52;;;;;;;3.57;2.83;;;4.00;80.90;;;;;;5072330;28;20253;-62
2021/03/06 09:28:23;;;;;;;4.33;3.10;;;4.10;78.60;;;;;;5072343;28;20229;-61
2021/03/06 09:30:49;;;;;;;5.63;3.17;;;4.20;78.30;;;;;;5072498;28;20235;-61
2021/03/06 09:33:27;;;;;;;4.47;3.40;;;4.40;77.90;;;;;;5072164;28;20661;-61
2021/03/06 09:36:03;;;;;;;5.20;3.40;;;4.50;78.40;;;;;;5072575;28;20278;-60
2021/03/06 09:38:29;;;;;;;3.73;3.00;;;4.50;78.60;;;;;;5072202;28;20201;-60
2021/03/06 09:40:56;;;;;;;3.60;3.17;;;4.60;77.40;;;;;;5072223;28;20204;-62
2021/03/06 09:43:31;;;;;;;3.53;3.20;;;4.60;77.80;;;;;;5072162;28;20807;-61
2021/03/06 09:45:58;;;;;;;4.13;3.13;;;4.60;77.20;;;;;;5071617;28;20229;-61
2021/03/06 09:48:25;;;;;;;4.97;3.23;;;4.60;77.80;;;;;;5072047;28;20826;-62
2021/03/06 09:50:54;;;;;;;4.90;3.30;;;4.70;77.20;;;;;;5071690;28;20212;-60
2021/03/06 09:53:22;;;;;;;3.97;2.90;;;4.90;77.20;;;;;;5071731;28;20217;-60
2021/03/06 09:56:03;;;;;;;3.83;3.00;;;5.00;76.30;;;;;;5071844;28;20241;-61
2021/03/06 09:58:30;;;;;;;4.27;2.77;;;5.10;75.40;;;;;;5071628;28;20201;-60
2021/03/06 10:01:12;;;;;;;4.80;2.50;;;5.20;73.50;;;;;;5071946;28;20258;-60
2021/03/06 10:03:38;;;;;;;3.07;2.60;;;5.10;72.70;;;;;;5072172;28;20204;-59
2021/03/06 10:06:06;;;;;;;4.23;2.97;;;5.10;72.80;;;;;;5071719;28;20225;-60
2021/03/06 10:08:38;;;;;;;3.23;2.77;;;5.20;72.90;;;;;;5071411;28;20232;-60
2021/03/06 10:11:04;;;;;;;3.43;2.67;;;5.10;72.40;;;;;;5071620;28;20266;-61
2021/03/06 10:13:31;;;;;;;3.10;2.50;;;5.10;72.70;;;;;;5071520;28;20209;-60
2021/03/06 10:15:59;;;;;;;2.97;2.60;;;5.20;72.10;;;;;;5071873;28;20224;-61
2021/03/06 10:18:27;;;;;;;3.37;2.67;;;5.40;72.00;;;;;;5071576;28;20242;-61
2021/03/06 10:20:53;;;;;;;3.13;2.60;;;5.50;70.40;;;;;;5071724;28;20245;-59
2021/03/06 10:23:35;;;;;;;5.00;2.70;;;5.50;69.50;;;;;;5071197;28;20208;-60
2021/03/06 10:26:22;;;;;;;3.20;2.43;;;5.50;69.90;;;;;;5069976;28;20765;-61
2021/03/06 10:28:50;;;;;;;5.30;2.77;;;5.60;68.90;;;;;;5071550;28;20220;-60
2021/03/06 10:31:35;;;;;;;3.40;2.43;;;5.70;69.60;;;;;;5071547;28;20548;-61
2021/03/06 10:34:16;;;;;;;4.00;2.70;;;5.90;68.20;;;;;;5072428;28;20457;-59
2021/03/06 10:36:43;;;;;;;3.30;2.50;;;6.00;68.10;;;;;;5075339;28;20235;-61
2021/03/06 10:39:15;;;;;;;5.23;2.70;;;6.00;66.90;;;;;;5075328;28;20208;-61
2021/03/06 10:41:41;;;;;;;4.00;2.77;;;6.00;66.10;;;;;;5075097;28;20587;-60
2021/03/06 10:44:08;;;;;;;2.53;2.27;;;6.00;67.20;;;;;;5074699;28;20212;-61
2021/03/06 10:46:35;;;;;;;6.07;2.80;;;6.00;65.30;;;;;;5075189;28;20231;-61
2021/03/06 10:49:04;;;;;;;3.57;2.60;;;6.10;65.70;;;;;;5075265;28;20224;-62
2021/03/06 10:51:44;;;;;;;3.57;2.40;;;6.20;65.40;;;;;;5075435;28;20219;-60
2021/03/06 10:54:13;;;;;;;2.53;2.20;;;6.30;65.50;;;;;;5075049;28;20204;-61
2021/03/06 10:56:40;;;;;;;5.30;2.63;;;6.50;62.50;;;;;;5074915;28;20234;-61
2021/03/06 10:59:07;;;;;;;3.30;2.40;;;6.40;62.60;;;;;;5074828;28;20605;-63
2021/03/06 11:01:46;;;;;;;3.00;2.20;;;6.50;62.80;;;;;;5075078;28;20207;-60
2021/03/06 11:04:24;;;;;;;2.20;2.00;;;6.60;64.30;;;;;;5075246;28;20209;-62
2021/03/06 11:06:55;;;;;;;2.77;2.30;;;6.80;62.10;;;;;;5074903;28;20596;-62
2021/03/06 11:09:26;;;;;;;4.77;2.40;;;6.80;59.40;;;;;;5074372;28;20224;-61
2021/03/06 11:11:52;;;;;;;2.90;2.30;;;6.90;60.20;;;;;;5074914;28;20212;-62
2021/03/06 11:14:23;;;;;;;2.50;2.10;;;7.10;60.40;;;;;;5072895;28;21605;-61
2021/03/06 11:16:49;;;;;;;3.90;2.30;;;7.20;59.20;;;;;;5074107;28;20221;-61
2021/03/06 11:19:15;;;;;;;2.37;1.97;;;7.20;58.50;;;;;;5074028;28;20795;-62
2021/03/06 11:21:41;;;;;;;2.87;2.40;;;7.20;58.80;;;;;;5073688;28;20209;-63
2021/03/06 11:24:09;;;;;;;4.83;2.53;;;7.30;59.40;;;;;;5060480;28;20209;-63
2021/03/06 11:26:37;;;;;;;2.57;2.30;;;7.40;59.60;;;;;;5054572;28;20225;-63
2021/03/06 11:29:03;;;;;;;3.60;2.13;;;7.50;60.70;;;;;;5054083;28;20248;-66
2021/03/06 11:31:32;;;;;;;3.37;2.27;;;7.70;60.10;;;;;;5053900;28;20233;-61
2021/03/06 11:33:58;;;;;;;2.30;2.10;;;7.80;57.70;;;;;;5053685;28;20202;-63
2021/03/06 11:36:24;;;;;;;2.97;2.00;;;7.80;57.90;;;;;;5053838;28;20229;-63
2021/03/06 11:38:50;;;;;;;2.87;2.03;;;7.80;56.90;;;;;;5053944;28;20198;-63
2021/03/06 11:41:17;;;;;;;2.70;2.10;;;7.70;56.70;;;;;;5053629;28;20213;-62
2021/03/06 11:43:44;;;;;;;2.77;1.87;;;7.70;56.60;;;;;;5053895;28;20231;-61
2021/03/06 11:46:10;;;;;;;4.77;2.40;;;7.70;56.50;;;;;;5053280;28;20225;-58
2021/03/06 11:48:36;;;;;;;4.73;2.33;;;7.60;57.70;;;;;;5053589;28;20256;-58
2021/03/06 11:51:03;;;;;;;3.80;2.30;;;7.60;57.90;;;;;;5053636;28;20213;-58
2021/03/06 11:53:29;;;;;;;2.80;2.07;;;7.60;56.80;;;;;;5053838;28;20202;-60
2021/03/06 11:55:55;;;;;;;2.83;2.30;;;7.60;56.00;;;;;;5053429;28;20287;-60
2021/03/06 11:58:21;;;;;;;2.73;2.03;;;7.50;56.70;;;;;;5053611;28;20300;-61
2021/03/06 12:00:48;;;;;;;4.87;2.10;;;7.60;57.60;;;;;;5053873;28;20209;-59
2021/03/06 12:03:14;;;;;;;2.50;2.30;;;7.60;58.20;;;;;;5053690;28;20576;-58
2021/03/06 12:05:41;;;;;;;3.23;2.27;;;7.70;57.40;;;;;;5052867;28;20226;-61
2021/03/06 12:08:07;;;;;;;3.20;1.80;;;7.90;57.00;;;;;;5052979;28;20229;-59
2021/03/06 12:10:33;;;;;;;2.13;1.73;;;7.90;56.80;;;;;;5052862;28;20718;-61
2021/03/06 12:13:00;;;;;;;2.40;2.20;;;8.00;57.40;;;;;;5053269;28;20209;-62
2021/03/06 12:15:26;;;;;;;2.47;1.70;;;8.00;58.50;;;;;;5052907;28;20302;-60
2021/03/06 12:17:54;;;;;;;2.77;2.20;;;8.10;57.70;;;;;;5053250;28;20201;-60
2021/03/06 12:20:21;;;;;;;2.17;1.90;;;8.20;57.30;;;;;;5053454;28;20214;-59
2021/03/06 12:22:47;;;;;;;3.07;2.30;;;8.10;56.80;;;;;;5053127;28;20398;-60
2021/03/06 12:25:15;;;;;;;2.93;2.23;;;8.10;57.60;;;;;;5052664;28;20720;-61
2021/03/06 12:27:42;;;;;;;3.27;2.50;;;8.10;58.10;;;;;;5052897;28;20229;-61
2021/03/06 12:30:11;;;;;;;3.17;2.20;;;8.20;58.30;;;;;;5052948;28;20202;-63
2021/03/06 12:32:38;;;;;;;2.10;1.90;;;8.30;58.70;;;;;;5052607;28;20252;-63
2021/03/06 12:35:07;;;;;;;4.90;2.20;;;8.40;57.10;;;;;;5052826;28;20214;-61
2021/03/06 12:37:34;;;;;;;6.57;2.40;;;8.40;55.50;;;;;;5052646;28;20206;-62
2021/03/06 12:40:00;;;;;;;2.50;1.83;;;8.50;55.90;;;;;;5052566;28;20209;-62
2021/03/06 12:42:27;;;;;;;2.37;2.00;;;8.40;55.60;;;;;;5052235;28;20823;-62
2021/03/06 12:44:53;;;;;;;3.60;2.33;;;8.20;56.60;;;;;;5052225;28;20205;-61
2021/03/06 12:47:19;;;;;;;3.40;2.50;;;8.30;56.20;;;;;;5052095;28;20575;-63
2021/03/06 12:49:45;;;;;;;2.27;1.93;;;8.30;56.00;;;;;;5052470;28;20205;-63
2021/03/06 12:52:12;;;;;;;4.87;2.20;;;8.30;56.80;;;;;;5052340;28;20209;-63
2021/03/06 12:54:39;;;;;;;3.80;2.70;;;8.40;57.40;;;;;;5052504;28;20212;-63
2021/03/06 12:57:05;;;;;;;4.53;2.33;;;8.50;56.00;;;;;;5051826;28;20272;-65
2021/03/06 12:59:31;;;;;;;3.17;2.47;;;8.50;55.80;;;;;;5052600;28;20198;-63
2021/03/06 13:01:58;;;;;;;2.30;1.83;;;8.50;54.80;;;;;;5052541;28;20220;-63